Time;durP1;ratioP1;P1;durP2;ratioP2;P2;SDS_P1;SDS_P2;PMS_P1;PMS_P2;Temp;Humidity;BMP_temperature;BMP_pressure;BME280_temperature;BME280_humidity;BME280_pressure;Samples;Min_cycle;Max_cycle;Signal;HPM_P1;HPM_P2
2023/01/26 00:02:23;;;;;;;14.20;11.23;;;;;;;4.63;72.18;100349.19;5033563;28;20281;-54
2023/01/26 00:04:50;;;;;;;16.27;11.57;;;;;;;4.68;72.20;100346.88;5033250;28;20676;-56
2023/01/26 00:07:17;;;;;;;16.90;11.60;;;;;;;4.67;70.84;100342.56;5033196;28;20652;-55
2023/01/26 00:09:44;;;;;;;14.90;10.73;;;;;;;4.69;71.54;100335.91;5033403;28;20270;-53
2023/01/26 00:12:10;;;;;;;14.50;10.37;;;;;;;4.67;70.06;100337.47;5033249;28;20270;-54
2023/01/26 00:14:49;;;;;;;14.40;11.27;;;;;;;4.68;69.82;100327.41;5033065;28;20226;-54
2023/01/26 00:17:25;;;;;;;18.43;11.53;;;;;;;4.48;72.33;100311.84;5032962;28;20279;-54
2023/01/26 00:19:58;;;;;;;16.70;12.57;;;;;;;4.49;73.16;100305.97;5032956;28;20277;-53
2023/01/26 00:22:26;;;;;;;19.00;13.13;;;;;;;4.35;74.75;100306.91;5033193;28;20669;-54
2023/01/26 00:24:53;;;;;;;17.50;12.77;;;;;;;4.14;75.23;100293.94;5032837;28;20191;-53
2023/01/26 00:27:20;;;;;;;18.30;12.20;;;;;;;3.99;75.18;100306.69;5032722;28;20652;-53
2023/01/26 00:29:46;;;;;;;17.53;11.40;;;;;;;4.00;76.62;100302.47;5033081;28;20195;-54
2023/01/26 00:32:13;;;;;;;18.53;11.07;;;;;;;3.93;77.74;100301.25;5032894;28;20194;-53
2023/01/26 00:34:40;;;;;;;15.63;11.20;;;;;;;3.95;78.29;100297.16;5032607;28;20194;-54
2023/01/26 00:37:08;;;;;;;15.03;11.07;;;;;;;3.91;78.21;100301.97;5032750;28;20694;-54
2023/01/26 00:39:35;;;;;;;14.10;11.70;;;;;;;3.94;78.14;100300.47;5032590;28;20196;-53
2023/01/26 00:42:09;;;;;;;12.43;9.33;;;;;;;3.91;77.16;100295.22;5032593;28;20251;-54
2023/01/26 00:44:38;;;;;;;14.97;9.93;;;;;;;3.94;77.35;100290.31;5033028;28;20198;-54
2023/01/26 00:47:05;;;;;;;16.77;10.93;;;;;;;4.03;77.55;100300.97;5032651;28;20223;-53
2023/01/26 00:49:32;;;;;;;16.70;11.23;;;;;;;4.08;77.45;100307.19;5032560;28;20554;-54
2023/01/26 00:51:59;;;;;;;15.13;10.37;;;;;;;4.16;76.85;100297.44;5032650;28;20194;-54
2023/01/26 00:54:28;;;;;;;17.80;11.03;;;;;;;4.22;76.68;100282.50;5032429;28;20190;-54
2023/01/26 00:56:55;;;;;;;19.23;11.30;;;;;;;4.26;76.04;100286.94;5032585;28;20298;-54
2023/01/26 00:59:22;;;;;;;15.47;11.30;;;;;;;4.29;75.27;100288.78;5032949;28;20191;-54
2023/01/26 01:01:49;;;;;;;13.37;10.87;;;;;;;4.32;75.82;100292.38;5032616;28;20202;-54
2023/01/26 01:04:16;;;;;;;16.60;12.37;;;;;;;4.31;75.10;100289.75;5031919;28;20195;-53
2023/01/26 01:06:43;;;;;;;17.90;13.03;;;;;;;4.19;75.45;100284.88;5032278;28;20200;-54
2023/01/26 01:09:10;;;;;;;22.07;13.70;;;;;;;4.18;75.70;100285.66;5031994;28;20616;-55
2023/01/26 01:11:38;;;;;;;19.30;13.47;;;;;;;4.16;75.90;100279.63;5032211;28;20657;-54
2023/01/26 01:14:05;;;;;;;17.37;12.13;;;;;;;4.06;75.97;100257.06;5032140;28;20190;-54
2023/01/26 01:16:32;;;;;;;15.80;11.37;;;;;;;4.20;76.09;100275.59;5034684;28;20223;-53
2023/01/26 01:18:58;;;;;;;17.87;11.70;;;;;;;4.16;75.76;100277.09;5032494;28;20584;-54
2023/01/26 01:21:26;;;;;;;15.00;10.87;;;;;;;4.24;76.41;100278.38;5053292;28;20558;-54
2023/01/26 01:23:53;;;;;;;16.90;11.80;;;;;;;4.33;75.55;100273.78;5051723;28;20612;-54
2023/01/26 01:26:20;;;;;;;15.73;10.80;;;;;;;4.40;74.92;100269.88;5051182;28;20194;-54
2023/01/26 01:28:48;;;;;;;13.73;11.77;;;;;;;4.41;75.17;100269.09;5052528;28;20190;-54
2023/01/26 01:31:16;;;;;;;14.27;10.37;;;;;;;4.43;74.95;100270.91;5051902;28;20232;-54
2023/01/26 01:33:43;;;;;;;15.70;11.07;;;;;;;4.48;74.20;100263.50;5051896;28;20191;-55
2023/01/26 01:36:12;;;;;;;17.93;11.17;;;;;;;4.53;74.05;100255.31;5033101;28;20237;-54
2023/01/26 01:38:39;;;;;;;15.67;10.90;;;;;;;4.49;74.49;100250.00;5031642;28;20190;-54
2023/01/26 01:41:06;;;;;;;15.13;11.20;;;;;;;4.56;74.44;100247.00;5031709;28;20188;-54
2023/01/26 01:43:33;;;;;;;15.07;10.33;;;;;;;4.55;74.19;100246.13;5031851;28;20194;-54
2023/01/26 01:46:04;;;;;;;12.17;9.00;;;;;;;4.63;74.02;100254.16;5032063;28;20199;-54
2023/01/26 01:48:37;;;;;;;12.10;8.93;;;;;;;4.63;71.99;100254.16;5031856;28;20191;-54
2023/01/26 01:51:08;;;;;;;14.60;9.93;;;;;;;4.65;70.96;100253.44;5031845;28;20671;-54
2023/01/26 01:53:39;;;;;;;14.70;10.97;;;;;;;4.62;72.31;100244.75;5034391;28;20643;-54
2023/01/26 01:56:10;;;;;;;14.27;10.40;;;;;;;4.63;72.34;100242.31;5051243;28;20219;-55
2023/01/26 01:58:41;;;;;;;12.53;9.23;;;;;;;4.64;70.18;100240.63;5051985;28;20179;-56
2023/01/26 02:01:10;;;;;;;15.97;11.37;;;;;;;4.65;70.47;100234.72;5051491;28;20218;-54
2023/01/26 02:03:38;;;;;;;17.13;11.87;;;;;;;4.63;71.19;100232.13;5051708;28;20214;-54
2023/01/26 02:06:11;;;;;;;16.93;11.33;;;;;;;4.60;71.54;100221.78;5051273;28;20249;-54
2023/01/26 02:08:40;;;;;;;14.33;10.30;;;;;;;4.50;71.82;100219.56;5051475;28;20752;-54
2023/01/26 02:11:11;;;;;;;15.57;10.97;;;;;;;4.34;72.09;100223.78;5051297;28;20197;-53
2023/01/26 02:13:39;;;;;;;13.13;10.10;;;;;;;3.98;73.49;100198.13;5051296;28;20197;-53
2023/01/26 02:16:06;;;;;;;14.83;9.97;;;;;;;3.92;74.87;100217.28;5053556;28;20244;-56
2023/01/26 02:18:35;;;;;;;13.80;9.83;;;;;;;3.81;74.99;100214.19;5054987;28;20686;-54
2023/01/26 02:21:05;;;;;;;13.63;10.10;;;;;;;3.88;75.92;100216.25;5053796;28;20322;-54
2023/01/26 02:23:45;;;;;;;12.70;9.43;;;;;;;3.99;76.29;100215.16;5044761;28;20201;-54
2023/01/26 02:26:15;;;;;;;12.07;9.10;;;;;;;3.98;74.83;100207.47;5052600;28;20196;-54
2023/01/26 02:28:44;;;;;;;14.23;10.27;;;;;;;3.93;75.03;100214.81;5042814;28;20237;-54
2023/01/26 02:31:11;;;;;;;11.50;8.77;;;;;;;3.92;74.39;100210.56;5052630;28;20194;-54
2023/01/26 02:33:39;;;;;;;12.67;9.17;;;;;;;3.75;74.26;100167.22;5053555;28;20191;-54
2023/01/26 02:36:07;;;;;;;14.10;8.90;;;;;;;4.07;73.62;100208.81;5053319;28;20231;-54
2023/01/26 02:38:40;;;;;;;11.70;8.10;;;;;;;4.05;73.08;100206.97;5053683;28;20239;-55
2023/01/26 02:41:09;;;;;;;10.00;8.17;;;;;;;4.10;72.98;100198.81;5051773;28;20176;-54
2023/01/26 02:43:36;;;;;;;13.93;9.13;;;;;;;4.15;72.26;100192.28;5053289;28;20220;-54
2023/01/26 02:46:03;;;;;;;14.23;9.23;;;;;;;4.21;72.55;100193.41;5053395;28;20377;-54
2023/01/26 02:51:14;;;;;;;15.13;9.43;;;;;;;4.32;72.28;100187.19;5052549;28;20296;-55
2023/01/26 02:53:41;;;;;;;15.60;11.10;;;;;;;4.39;73.35;100192.69;5053449;28;20211;-55
2023/01/26 02:56:07;;;;;;;13.37;10.03;;;;;;;4.34;74.68;100190.72;5052658;28;20217;-55
2023/01/26 02:58:33;;;;;;;13.10;9.93;;;;;;;4.35;75.55;100188.25;5054461;28;20264;-55
2023/01/26 03:01:02;;;;;;;12.23;9.93;;;;;;;4.33;74.07;100177.13;5054383;28;20592;-53
2023/01/26 03:03:40;;;;;;;15.40;12.37;;;;;;;4.39;75.75;100181.66;5054521;28;20215;-53
2023/01/26 03:06:09;;;;;;;18.73;12.07;;;;;;;4.44;77.79;100176.00;5054462;28;20202;-53
2023/01/26 03:08:36;;;;;;;16.03;11.17;;;;;;;4.46;77.79;100176.06;5047975;28;20206;-54
2023/01/26 03:11:03;;;;;;;18.30;12.10;;;;;;;4.50;78.13;100177.97;5035090;28;20203;-54
2023/01/26 03:13:30;;;;;;;18.67;12.00;;;;;;;4.55;78.58;100176.53;5049687;28;20203;-54
2023/01/26 03:16:01;;;;;;;17.87;12.17;;;;;;;4.51;78.53;100167.88;5054100;28;20218;-55
2023/01/26 03:29:29;;;;;;;16.47;12.30;;;;;;;4.44;79.63;100154.78;5054065;28;20208;-54
2023/01/26 03:31:57;;;;;;;21.60;13.03;;;;;;;4.41;80.24;100155.50;5053764;28;20660;-54
2023/01/26 03:34:26;;;;;;;18.03;12.50;;;;;;;4.45;79.13;100154.00;5053791;28;20514;-54
2023/01/26 03:36:52;;;;;;;16.97;11.50;;;;;;;4.45;77.38;100147.19;5053926;28;20290;-54
2023/01/26 03:58:31;;;;;;;20.33;11.50;;;;;;;4.45;75.17;100111.59;5052409;28;20204;-54
2023/01/26 04:00:58;;;;;;;15.63;11.47;;;;;;;4.50;75.11;100102.53;5044261;28;20201;-54
2023/01/26 04:08:54;;;;;;;15.83;12.03;;;;;;;4.42;74.90;100093.63;5038452;28;20205;-54
2023/01/26 04:11:21;;;;;;;15.00;10.93;;;;;;;4.46;74.90;100090.44;5046634;28;20537;-54
2023/01/26 04:22:01;;;;;;;17.50;11.07;;;;;;;4.51;75.54;100103.38;5053063;28;20194;-54
2023/01/26 04:24:28;;;;;;;16.67;12.93;;;;;;;4.58;74.91;100092.72;5051687;28;20430;-54
2023/01/26 04:26:54;;;;;;;16.57;11.13;;;;;;;4.63;72.83;100092.16;5052921;28;20210;-54
2023/01/26 04:29:21;;;;;;;19.07;11.07;;;;;;;4.61;72.71;100088.66;5052733;28;20307;-54
2023/01/26 04:31:48;;;;;;;16.50;10.13;;;;;;;4.63;73.10;100081.09;5052582;28;20682;-54
2023/01/26 04:34:15;;;;;;;14.47;11.00;;;;;;;4.67;72.82;100090.59;5052416;28;20189;-54
2023/01/26 04:36:43;;;;;;;15.70;11.20;;;;;;;4.60;72.57;100080.94;5050797;28;20303;-53
2023/01/26 04:39:11;;;;;;;13.90;9.50;;;;;;;4.60;71.48;100081.81;5051702;28;20197;-54
2023/01/26 04:41:38;;;;;;;14.77;10.43;;;;;;;4.56;71.62;100076.53;5052350;28;20192;-54
2023/01/26 04:44:05;;;;;;;15.67;11.37;;;;;;;4.49;72.62;100071.91;5052386;28;20730;-54
2023/01/26 04:46:32;;;;;;;17.03;11.30;;;;;;;4.43;72.47;100074.16;5044104;28;20202;-54
2023/01/26 04:48:59;;;;;;;15.30;11.50;;;;;;;4.47;72.77;100070.97;5041101;28;20228;-54
2023/01/26 04:51:27;;;;;;;17.93;12.40;;;;;;;4.50;72.75;100072.00;5032471;28;20190;-56
2023/01/26 04:53:54;;;;;;;19.67;12.53;;;;;;;4.55;72.10;100070.56;5032673;28;20553;-54
2023/01/26 04:56:24;;;;;;;18.13;11.67;;;;;;;4.50;72.28;100071.13;5038317;28;20217;-54
2023/01/26 04:58:51;;;;;;;15.87;12.00;;;;;;;4.49;72.90;100077.00;5050182;28;20196;-54
2023/01/26 05:01:18;;;;;;;16.97;12.70;;;;;;;4.47;73.74;100076.94;5046507;28;20657;-54
2023/01/26 05:03:45;;;;;;;16.07;11.73;;;;;;;4.49;73.85;100077.88;5052198;28;20189;-54
2023/01/26 05:06:12;;;;;;;16.23;12.07;;;;;;;4.50;72.84;100078.75;5052234;28;20537;-54
2023/01/26 05:08:39;;;;;;;17.07;12.70;;;;;;;4.47;74.07;100074.41;5051404;28;20200;-54
2023/01/26 05:11:06;;;;;;;20.50;11.27;;;;;;;4.51;73.71;100070.31;5052137;28;20191;-55
2023/01/26 05:13:35;;;;;;;20.20;13.40;;;;;;;4.38;74.00;100076.47;5038350;28;20261;-54
2023/01/26 05:16:02;;;;;;;18.90;13.83;;;;;;;4.45;75.13;100075.13;5051542;28;20255;-53
2023/01/26 05:18:28;;;;;;;16.87;13.07;;;;;;;4.46;74.86;100070.09;5051920;28;20201;-54
2023/01/26 05:20:56;;;;;;;27.90;13.80;;;;;;;4.38;75.14;100055.25;5051936;28;20202;-54
2023/01/26 05:23:22;;;;;;;23.17;13.03;;;;;;;4.52;75.11;100072.06;5042442;28;20196;-53
2023/01/26 05:25:49;;;;;;;20.13;15.23;;;;;;;4.55;75.80;100070.56;5051318;28;20199;-53
2023/01/26 05:28:16;;;;;;;20.47;14.67;;;;;;;4.62;75.15;100069.16;5051373;28;20221;-53
2023/01/26 05:30:44;;;;;;;24.30;15.40;;;;;;;4.62;75.10;100062.41;5051412;28;20193;-54
2023/01/26 05:33:11;;;;;;;18.93;14.37;;;;;;;4.59;74.45;100049.53;5051441;28;20250;-53
2023/01/26 05:35:38;;;;;;;19.23;13.67;;;;;;;4.53;74.57;100054.31;5051192;28;20225;-54
2023/01/26 05:38:05;;;;;;;18.53;12.83;;;;;;;4.44;74.71;100043.72;5051470;28;20599;-54
2023/01/26 05:40:32;;;;;;;21.33;15.47;;;;;;;4.44;75.48;100045.38;5051630;28;20668;-53
2023/01/26 05:42:58;;;;;;;18.60;13.17;;;;;;;4.42;75.70;100049.53;5051247;28;20678;-54
2023/01/26 05:45:25;;;;;;;17.50;13.70;;;;;;;4.43;75.29;100052.13;5051289;28;20660;-52
2023/01/26 05:47:53;;;;;;;19.80;13.43;;;;;;;4.37;75.99;100045.88;5051626;28;20197;-52
2023/01/26 05:50:20;;;;;;;21.57;15.13;;;;;;;4.10;75.12;100018.28;5054179;28;20192;-52
2023/01/26 05:52:48;;;;;;;19.83;13.37;;;;;;;4.25;75.76;100045.25;5055521;28;20190;-52
2023/01/26 05:55:15;;;;;;;18.53;13.57;;;;;;;4.22;75.79;100050.19;5055414;28;20675;-52
2023/01/26 05:57:42;;;;;;;21.90;14.63;;;;;;;4.21;75.79;100044.22;5049014;28;20279;-52
2023/01/26 06:00:10;;;;;;;19.00;14.50;;;;;;;4.15;77.42;100042.25;5035358;28;20185;-52
2023/01/26 06:02:37;;;;;;;18.93;14.07;;;;;;;4.21;77.27;100043.34;5051108;28;20199;-52
2023/01/26 06:05:06;;;;;;;23.10;14.90;;;;;;;4.23;75.95;100052.81;5055097;28;20667;-52
2023/01/26 06:07:33;;;;;;;20.83;14.73;;;;;;;4.25;76.48;100048.69;5050405;28;20214;-52
2023/01/26 06:10:00;;;;;;;23.57;14.93;;;;;;;4.30;75.83;100044.69;5049275;28;20188;-52
2023/01/26 06:12:30;;;;;;;21.17;15.33;;;;;;;4.31;76.15;100035.41;5044420;28;20197;-52
2023/01/26 06:14:57;;;;;;;20.60;14.90;;;;;;;4.21;76.42;100017.91;5055267;28;20193;-52
2023/01/26 06:17:24;;;;;;;21.07;14.73;;;;;;;4.20;76.57;100034.00;5045300;28;20292;-52
2023/01/26 06:19:50;;;;;;;20.03;14.23;;;;;;;4.13;75.86;100031.16;5034934;28;20198;-53
2023/01/26 06:22:19;;;;;;;18.70;14.57;;;;;;;4.15;76.46;100026.13;5034883;28;20190;-52
2023/01/26 06:24:46;;;;;;;20.60;16.43;;;;;;;4.22;76.90;100035.81;5034964;28;20201;-52
2023/01/26 06:27:14;;;;;;;19.97;14.90;;;;;;;4.30;76.40;100039.63;5035216;28;20201;-52
2023/01/26 06:29:41;;;;;;;20.27;14.40;;;;;;;4.30;76.69;100038.72;5035532;28;20252;-52
2023/01/26 06:32:09;;;;;;;25.10;16.90;;;;;;;4.26;77.27;100035.16;5035104;28;20196;-52
2023/01/26 06:34:36;;;;;;;27.23;18.47;;;;;;;4.27;78.05;100036.91;5034644;28;20191;-52
2023/01/26 06:37:03;;;;;;;29.43;18.87;;;;;;;4.31;78.21;100041.38;5034719;28;20268;-52
2023/01/26 06:39:31;;;;;;;19.53;15.33;;;;;;;4.35;77.29;100042.38;5034345;28;20667;-52
2023/01/26 06:41:58;;;;;;;21.67;14.97;;;;;;;4.31;78.30;100035.41;5034473;28;20196;-52
2023/01/26 06:44:25;;;;;;;20.67;13.37;;;;;;;4.16;77.20;100032.97;5034764;28;20195;-52
2023/01/26 06:46:51;;;;;;;24.37;13.90;;;;;;;4.04;78.68;100024.72;5034614;28;20191;-53
2023/01/26 06:49:18;;;;;;;17.60;13.07;;;;;;;4.13;79.16;100020.97;5033877;28;20542;-53
2023/01/26 06:51:52;;;;;;;20.47;13.13;;;;;;;4.08;80.04;100006.28;5034183;28;20252;-53
2023/01/26 06:54:19;;;;;;;20.70;13.00;;;;;;;4.16;80.08;100021.13;5034676;28;20197;-53
2023/01/26 06:56:47;;;;;;;15.70;11.43;;;;;;;4.17;79.99;100015.22;5033911;28;20226;-53
2023/01/26 06:59:14;;;;;;;20.27;13.73;;;;;;;4.19;79.96;100010.22;5034060;28;20201;-53
2023/01/26 07:01:43;;;;;;;25.25;16.30;;;;;;;4.29;80.36;100009.00;5032891;28;20475;-53
2023/01/26 07:04:10;;;;;;;20.03;14.90;;;;;;;4.40;80.23;100013.81;5034077;28;20677;-53
2023/01/26 07:06:37;;;;;;;18.57;14.20;;;;;;;4.53;80.31;100015.31;5034043;28;20202;-53
2023/01/26 07:09:04;;;;;;;20.23;16.27;;;;;;;4.59;80.54;100011.34;5034081;28;20250;-53
2023/01/26 07:11:31;;;;;;;21.43;13.97;;;;;;;4.55;80.98;99990.78;5034482;28;20230;-53
2023/01/26 07:13:59;;;;;;;18.30;13.37;;;;;;;4.62;80.02;100003.00;5034117;28;20194;-53
2023/01/26 07:16:27;;;;;;;17.77;12.07;;;;;;;4.63;80.05;99995.44;5033815;28;20199;-54
2023/01/26 07:18:54;;;;;;;14.93;12.03;;;;;;;4.68;79.50;99993.13;5033838;28;20195;-53
2023/01/26 07:21:22;;;;;;;14.83;11.70;;;;;;;4.70;79.36;99982.19;5033638;28;20194;-53
2023/01/26 07:23:50;;;;;;;17.57;11.83;;;;;;;4.75;78.87;99990.06;5033641;28;20608;-54
2023/01/26 07:26:17;;;;;;;19.27;12.50;;;;;;;4.75;77.96;99985.84;5034045;28;20231;-53
2023/01/26 07:28:44;;;;;;;17.60;13.00;;;;;;;4.74;78.36;99970.50;5033693;28;20188;-53
2023/01/26 07:31:13;;;;;;;20.83;14.50;;;;;;;4.68;78.11;99977.84;5048807;28;20252;-53
2023/01/26 07:33:41;;;;;;;15.70;11.73;;;;;;;4.76;77.44;99979.94;5053482;28;20243;-53
2023/01/26 07:36:09;;;;;;;19.63;13.37;;;;;;;4.77;78.11;99975.75;5053397;28;20660;-51
2023/01/26 07:38:36;;;;;;;16.07;12.13;;;;;;;4.70;77.67;99968.59;5053124;28;20222;-54
2023/01/26 07:41:08;;;;;;;13.93;11.00;;;;;;;4.63;78.50;99970.00;5053311;28;20194;-53
2023/01/26 07:43:36;;;;;;;18.70;12.87;;;;;;;4.61;78.12;99969.06;5051416;28;20193;-54
2023/01/26 07:46:03;;;;;;;17.33;13.13;;;;;;;4.67;78.61;99963.38;5036913;28;20546;-53
2023/01/26 07:48:33;;;;;;;17.93;12.57;;;;;;;4.67;78.73;99971.00;5033372;28;20205;-53
2023/01/26 07:51:00;;;;;;;17.17;12.10;;;;;;;4.69;78.32;99980.47;5036061;28;20198;-53
2023/01/26 07:53:29;;;;;;;16.73;11.87;;;;;;;4.76;78.99;99969.78;5052102;28;20191;-54
2023/01/26 07:56:05;;;;;;;18.37;12.37;;;;;;;4.80;78.79;99968.25;5052813;28;20188;-53
2023/01/26 07:58:34;;;;;;;15.43;11.33;;;;;;;4.83;79.26;99972.59;5053009;28;20698;-53
2023/01/26 08:01:11;;;;;;;13.23;10.40;;;;;;;4.87;79.35;99967.72;5052923;28;20186;-54
2023/01/26 08:03:39;;;;;;;13.40;9.70;;;;;;;4.78;79.69;99969.81;5053604;28;20577;-54
2023/01/26 08:06:08;;;;;;;12.70;9.93;;;;;;;4.65;80.25;99968.41;5052804;28;20189;-53
2023/01/26 08:08:35;;;;;;;11.73;9.77;;;;;;;4.32;81.58;99925.22;5052752;28;20191;-53
2023/01/26 08:11:02;;;;;;;13.93;10.33;;;;;;;4.47;82.40;99954.81;5052474;28;20190;-53
2023/01/26 08:13:30;;;;;;;15.60;11.37;;;;;;;4.49;83.04;99965.94;5051313;28;20221;-53
2023/01/26 08:16:01;;;;;;;14.43;10.43;;;;;;;4.56;83.24;99967.09;5052188;28;20351;-53
2023/01/26 08:18:28;;;;;;;18.07;11.33;;;;;;;4.68;84.18;99968.53;5049127;28;20690;-53
2023/01/26 08:20:56;;;;;;;14.20;11.07;;;;;;;4.56;83.59;99956.94;5050674;28;20185;-53
2023/01/26 08:23:23;;;;;;;15.57;11.33;;;;;;;4.67;85.03;99963.38;5044634;28;20190;-53
2023/01/26 08:25:50;;;;;;;15.40;10.93;;;;;;;4.53;85.04;99966.97;5051815;28;20204;-53
2023/01/26 08:28:17;;;;;;;19.50;12.73;;;;;;;4.57;84.22;99962.06;5050666;28;20268;-52
2023/01/26 08:30:44;;;;;;;16.53;11.70;;;;;;;4.62;85.36;99957.19;5046796;28;20223;-53
2023/01/26 08:33:11;;;;;;;15.27;10.87;;;;;;;4.71;85.55;99952.53;5032203;28;20194;-51
2023/01/26 08:35:37;;;;;;;14.90;10.00;;;;;;;4.71;84.86;99960.19;5032931;28;20189;-52
2023/01/26 08:38:06;;;;;;;13.83;9.90;;;;;;;4.70;85.04;99959.31;5050254;28;20228;-53
2023/01/26 08:40:33;;;;;;;17.23;11.57;;;;;;;4.62;84.71;99958.06;5051432;28;20281;-52
2023/01/26 08:43:01;;;;;;;16.07;11.27;;;;;;;4.51;84.85;99922.75;5051799;28;20194;-52
2023/01/26 08:45:29;;;;;;;13.30;10.37;;;;;;;4.68;85.59;99927.81;5049035;28;20235;-53
2023/01/26 08:47:56;;;;;;;15.87;10.97;;;;;;;4.63;85.26;99936.03;5051726;28;20621;-53
2023/01/26 08:50:24;;;;;;;14.40;10.20;;;;;;;4.47;85.72;99900.53;5051572;28;20192;-53
2023/01/26 08:52:50;;;;;;;12.93;9.40;;;;;;;4.55;86.60;99935.69;5051416;28;20185;-54
2023/01/26 08:55:19;;;;;;;15.03;9.60;;;;;;;4.36;86.76;99937.28;5043967;28;20197;-52
2023/01/26 08:57:45;;;;;;;14.80;11.88;;;;;;;4.40;87.62;99931.53;5031057;28;20440;-53
2023/01/26 09:00:15;;;;;;;14.97;10.43;;;;;;;4.36;88.29;99932.22;5031759;28;20204;-53
2023/01/26 09:02:42;;;;;;;12.93;10.03;;;;;;;4.42;88.23;99924.88;5031620;28;20189;-53
2023/01/26 09:05:10;;;;;;;16.50;10.83;;;;;;;4.41;88.73;99926.53;5037322;28;20619;-53
2023/01/26 09:07:37;;;;;;;17.27;11.93;;;;;;;4.45;87.95;99918.22;5038149;28;20197;-54
2023/01/26 09:10:04;;;;;;;15.90;11.53;;;;;;;4.58;89.25;99924.78;5031863;28;20207;-53
2023/01/26 09:12:33;;;;;;;24.40;16.43;;;;;;;4.58;88.81;99920.56;5042918;28;20206;-53
2023/01/26 09:15:00;;;;;;;19.20;12.80;;;;;;;4.46;88.81;99919.13;5051279;28;20185;-53
2023/01/26 09:17:26;;;;;;;22.57;15.27;;;;;;;4.50;88.77;99921.00;5050805;28;20212;-53
2023/01/26 09:19:53;;;;;;;22.23;14.27;;;;;;;4.44;89.89;99913.09;5050866;28;20193;-53
2023/01/26 09:22:20;;;;;;;18.17;12.00;;;;;;;4.34;89.61;99918.56;5046647;28;20204;-53
2023/01/26 09:24:47;;;;;;;20.17;13.50;;;;;;;4.32;90.49;99912.50;5049111;28;20249;-53
2023/01/26 09:27:14;;;;;;;23.97;13.80;;;;;;;4.32;89.86;99905.75;5045332;28;20196;-52
2023/01/26 09:29:42;;;;;;;24.53;15.23;;;;;;;4.25;90.79;99897.78;5035277;28;20208;-53
2023/01/26 09:32:08;;;;;;;28.80;18.95;;;;;;;4.35;90.86;99899.94;5030649;28;20437;-53
2023/01/26 09:34:35;;;;;;;25.57;16.37;;;;;;;4.44;92.40;99883.44;5031452;28;20538;-52
2023/01/26 09:37:02;;;;;;;24.43;15.90;;;;;;;4.46;91.96;99886.91;5032192;28;20229;-54
2023/01/26 09:39:29;;;;;;;28.50;16.03;;;;;;;4.54;90.95;99875.41;5031177;28;20246;-53
2023/01/26 09:42:11;;;;;;;40.80;21.43;;;;;;;4.69;91.74;99878.69;5031670;28;20292;-53
2023/01/26 09:44:48;;;;;;;44.17;24.13;;;;;;;4.74;91.75;99867.03;5031028;28;20220;-53
2023/01/26 09:47:25;;;;;;;39.10;22.58;;;;;;;4.82;90.81;99871.56;5030735;28;20425;-51
2023/01/26 09:49:59;;;;;;;39.73;22.33;;;;;;;4.86;90.59;99854.00;5031746;28;20231;-53
2023/01/26 09:52:28;;;;;;;27.97;17.40;;;;;;;4.88;91.19;99849.81;5031025;28;20227;-53
2023/01/26 09:54:58;;;;;;;32.97;21.57;;;;;;;4.92;90.76;99845.72;5031018;28;20191;-53
2023/01/26 09:57:29;;;;;;;23.47;15.10;;;;;;;4.93;90.99;99850.91;5031512;28;20573;-53
2023/01/26 10:00:02;;;;;;;19.07;13.60;;;;;;;4.97;89.67;99845.13;5031327;28;20200;-53
2023/01/26 10:02:42;;;;;;;18.47;13.20;;;;;;;4.86;90.49;99825.97;5031636;28;20196;-53
2023/01/26 10:05:18;;;;;;;17.60;12.27;;;;;;;4.88;89.99;99828.59;5031155;28;20282;-53
2023/01/26 10:07:45;;;;;;;16.23;11.87;;;;;;;4.80;90.65;99828.25;5031222;28;20200;-53
2023/01/26 10:10:19;;;;;;;14.57;11.50;;;;;;;4.72;90.25;99821.97;5030985;28;20193;-53
2023/01/26 10:12:50;;;;;;;17.07;11.93;;;;;;;4.76;90.35;99811.09;5041164;28;20205;-52
2023/01/26 10:15:30;;;;;;;15.73;11.50;;;;;;;4.75;90.21;99814.47;5051415;28;20199;-52
2023/01/26 10:18:01;;;;;;;20.40;13.20;;;;;;;4.73;90.58;99809.28;5050726;28;20217;-52
2023/01/26 10:20:31;;;;;;;19.73;12.60;;;;;;;4.72;90.68;99814.31;5050689;28;20707;-53
2023/01/26 10:23:03;;;;;;;18.33;14.07;;;;;;;4.53;90.93;99797.34;5050781;28;20188;-53
2023/01/26 10:25:35;;;;;;;18.00;13.67;;;;;;;4.66;91.06;99806.41;5049619;28;20195;-55
2023/01/26 10:28:12;;;;;;;20.90;14.03;;;;;;;4.66;91.95;99808.94;5050625;28;20201;-54
2023/01/26 10:30:41;;;;;;;20.70;14.63;;;;;;;4.71;92.89;99799.84;5050544;28;20195;-54
2023/01/26 10:33:15;;;;;;;26.90;18.33;;;;;;;4.58;91.92;99788.25;5050301;28;20653;-53
2023/01/26 10:35:42;;;;;;;18.90;12.73;;;;;;;4.56;91.71;99768.66;5050418;28;20219;-58
2023/01/26 10:38:43;;;;;;;17.03;12.47;;;;;;;4.63;91.82;99773.19;5054297;28;20216;-55
2023/01/26 10:41:25;;;;;;;19.77;13.10;;;;;;;4.45;91.45;99739.31;4973563;28;20197;-52
2023/01/26 10:43:54;;;;;;;16.27;13.00;;;;;;;4.71;91.22;99764.22;4973498;28;20195;-53
2023/01/26 10:46:31;;;;;;;17.87;12.50;;;;;;;4.73;91.77;99757.50;4973431;28;20236;-53
2023/01/26 10:49:00;;;;;;;16.57;12.00;;;;;;;4.70;91.22;99752.28;4973693;28;20654;-54
2023/01/26 10:51:29;;;;;;;16.10;12.13;;;;;;;4.61;91.23;99746.81;4973511;28;20256;-53
2023/01/26 10:54:20;;;;;;;18.67;12.97;;;;;;;4.61;91.19;99727.34;4973402;28;20214;-52
2023/01/26 10:56:50;;;;;;;18.40;12.30;;;;;;;4.61;91.34;99731.56;4973278;28;20688;-52
2023/01/26 10:59:26;;;;;;;16.57;12.37;;;;;;;4.67;91.42;99737.75;4973570;28;20641;-54
2023/01/26 11:01:56;;;;;;;16.17;13.40;;;;;;;4.73;91.43;99732.94;4973503;28;20287;-52
2023/01/26 11:04:25;;;;;;;18.50;13.57;;;;;;;4.69;91.14;99714.94;4969708;28;20196;-53
2023/01/26 11:06:52;;;;;;;18.47;13.57;;;;;;;4.78;90.84;99728.03;4962222;28;20203;-53
2023/01/26 11:09:23;;;;;;;21.50;14.93;;;;;;;4.76;90.45;99719.47;4954260;29;20218;-53
2023/01/26 11:12:17;;;;;;;18.23;13.70;;;;;;;4.78;91.23;99715.31;4985699;28;20433;-53
2023/01/26 11:15:00;;;;;;;16.03;12.10;;;;;;;4.80;89.88;99703.53;5041151;28;20479;-53
2023/01/26 11:17:33;;;;;;;17.20;13.07;;;;;;;4.87;91.26;99710.59;5053909;28;20610;-53
2023/01/26 11:20:18;;;;;;;17.40;13.47;;;;;;;4.86;90.87;99715.66;5053633;28;20556;-53
2023/01/26 11:22:52;;;;;;;21.70;15.67;;;;;;;4.83;91.10;99693.47;5053861;28;20270;-54
2023/01/26 11:25:27;;;;;;;23.63;14.43;;;;;;;4.82;91.72;99689.19;5053549;28;20200;-51
2023/01/26 11:28:09;;;;;;;21.43;15.57;;;;;;;4.87;91.60;99695.34;5053365;28;20194;-52
2023/01/26 11:31:04;;;;;;;19.73;14.43;;;;;;;4.86;91.71;99673.25;5053477;28;20252;-53
2023/01/26 11:33:41;;;;;;;18.30;14.47;;;;;;;4.87;91.22;99679.19;5053505;28;20191;-53
2023/01/26 11:36:18;;;;;;;18.07;13.67;;;;;;;4.81;91.26;99669.63;5053303;28;20233;-53
2023/01/26 11:38:51;;;;;;;17.37;13.53;;;;;;;4.85;91.04;99661.31;5053126;28;20641;-53
2023/01/26 11:41:37;;;;;;;20.20;15.03;;;;;;;4.79;90.12;99650.88;5053513;28;20582;-52
2023/01/26 11:44:20;;;;;;;20.77;15.23;;;;;;;4.82;89.71;99642.50;5053372;28;20677;-53
2023/01/26 11:46:58;;;;;;;20.67;16.03;;;;;;;4.88;90.17;99638.53;5053441;28;20193;-53
2023/01/26 11:49:54;;;;;;;26.47;18.10;;;;;;;4.85;91.35;99623.13;5052415;28;20564;-52
2023/01/26 11:52:32;;;;;;;21.43;14.80;;;;;;;4.76;89.48;99616.00;5033549;28;20198;-53
2023/01/26 11:55:16;;;;;;;21.43;17.63;;;;;;;4.83;89.54;99622.22;5041550;28;20205;-53
2023/01/26 11:57:53;;;;;;;20.43;14.83;;;;;;;4.85;90.14;99623.13;5035083;28;20211;-54
2023/01/26 12:00:24;;;;;;;23.00;15.93;;;;;;;4.88;91.58;99622.38;5052965;28;20256;-53
2023/01/26 12:02:58;;;;;;;22.13;15.20;;;;;;;4.85;91.41;99620.59;5052836;28;20206;-53
2023/01/26 12:05:29;;;;;;;27.27;19.77;;;;;;;4.91;91.36;99618.31;5053268;28;20205;-52
2023/01/26 12:08:04;;;;;;;22.20;14.60;;;;;;;4.84;90.04;99611.22;5052966;28;20254;-53
2023/01/26 12:10:36;;;;;;;19.73;13.77;;;;;;;4.81;90.94;99606.00;5051762;28;20192;-53
2023/01/26 12:13:14;;;;;;;18.37;13.87;;;;;;;4.84;91.07;99601.03;5049058;28;20200;-53
2023/01/26 12:15:47;;;;;;;26.60;16.13;;;;;;;4.85;91.21;99594.25;5044852;28;20732;-53
2023/01/26 12:18:22;;;;;;;18.57;14.13;;;;;;;4.89;91.79;99603.78;5051916;28;20270;-52
2023/01/26 12:20:55;;;;;;;19.80;14.50;;;;;;;4.90;92.46;99598.72;5052105;28;20505;-53